createdAt,value
2023-02-11T07:50:52.860Z,100189.00
2023-02-11T07:53:20.199Z,100204.00
2023-02-11T07:55:47.486Z,100202.00
2023-02-11T07:58:14.754Z,100192.00
2023-02-11T08:00:42.178Z,100184.00
2023-02-11T08:03:09.568Z,100180.00
2023-02-11T08:05:39.292Z,100179.00
2023-02-11T08:08:06.652Z,100194.00
2023-02-11T08:10:33.960Z,100182.00
2023-02-11T08:13:01.243Z,100182.00
2023-02-11T08:15:28.549Z,100174.00
2023-02-11T08:17:55.825Z,100177.00
2023-02-11T08:20:23.193Z,100177.00
2023-02-11T08:22:50.482Z,100169.00
2023-02-11T08:25:17.953Z,100179.00
2023-02-11T08:27:45.288Z,100178.00
2023-02-11T08:30:14.148Z,100182.00
2023-02-11T08:32:41.470Z,100199.00
2023-02-11T08:35:12.384Z,100210.00
2023-02-11T08:37:39.821Z,100199.00
2023-02-11T08:40:07.796Z,100198.00
2023-02-11T08:42:35.162Z,100197.00
2023-02-11T08:45:02.512Z,100213.00
2023-02-11T08:47:29.817Z,100198.00
2023-02-11T08:49:57.271Z,100204.00
2023-02-11T08:52:24.595Z,100192.00
2023-02-11T08:54:52.021Z,100208.00
2023-02-11T08:57:19.735Z,100202.00
2023-02-11T08:59:47.054Z,100204.00
2023-02-11T09:02:15.460Z,100207.00
2023-02-11T09:04:42.808Z,100219.00
2023-02-11T09:07:10.160Z,100222.00
2023-02-11T09:09:37.537Z,100211.00
2023-02-11T09:12:05.829Z,100213.00
2023-02-11T09:14:33.105Z,100219.00
2023-02-11T09:17:00.530Z,100212.00
2023-02-11T09:19:27.933Z,100219.00
2023-02-11T09:21:55.291Z,100224.00
2023-02-11T09:24:22.571Z,100206.00
2023-02-11T09:26:49.935Z,100218.00
2023-02-11T09:29:17.255Z,100220.00
2023-02-11T09:31:44.691Z,100218.00
2023-02-11T09:34:12.773Z,100214.00
2023-02-11T09:36:41.656Z,100213.00
2023-02-11T09:39:20.286Z,100219.00
2023-02-11T09:42:23.307Z,100224.00
2023-02-11T09:44:52.397Z,100225.00
2023-02-11T09:47:43.118Z,100219.00
2023-02-11T09:50:21.694Z,100215.00
2023-02-11T09:53:14.911Z,100207.00
2023-02-11T09:55:55.617Z,100228.00
2023-02-11T09:58:39.890Z,100226.00
2023-02-11T10:01:47.404Z,100227.00
2023-02-11T10:05:09.265Z,100239.00
2023-02-11T10:08:01.767Z,100234.00
2023-02-11T10:10:58.134Z,100245.00
2023-02-11T10:14:24.820Z,100243.00
2023-02-11T10:18:14.103Z,100252.00
2023-02-11T10:21:46.646Z,100258.00
2023-02-11T10:24:17.510Z,100245.00
2023-02-11T10:26:46.049Z,100233.00
2023-02-11T10:29:46.085Z,100234.00
2023-02-11T10:32:52.425Z,100244.00
2023-02-11T10:35:23.723Z,100231.00
2023-02-11T10:37:51.170Z,100239.00
2023-02-11T10:40:29.977Z,100245.00
2023-02-11T10:43:04.591Z,100251.00
2023-02-11T10:45:55.942Z,100251.00
2023-02-11T10:48:52.825Z,100248.00
2023-02-11T10:51:34.251Z,100263.00
2023-02-11T10:54:04.490Z,100266.00
2023-02-11T10:56:50.785Z,100256.00
2023-02-11T10:59:40.250Z,100265.00
2023-02-11T11:02:36.081Z,100254.00
2023-02-11T11:05:26.535Z,100243.00
2023-02-11T11:08:07.315Z,100246.00
2023-02-11T11:10:49.662Z,100240.00
2023-02-11T11:13:53.240Z,100237.00
2023-02-11T11:16:26.006Z,100237.00
2023-02-11T11:19:21.644Z,100239.00
2023-02-11T11:21:55.473Z,100236.00
2023-02-11T11:24:44.381Z,100243.00
2023-02-11T11:27:24.644Z,100238.00
2023-02-11T11:29:56.010Z,100233.00
2023-02-11T11:32:32.321Z,100224.00
2023-02-11T11:35:21.691Z,100227.00
2023-02-11T11:38:02.228Z,100229.00
2023-02-11T11:40:36.549Z,100225.00
2023-02-11T11:43:12.860Z,100219.00
2023-02-11T11:46:00.248Z,100209.00
2023-02-11T11:48:46.969Z,100213.00
2023-02-11T11:51:14.337Z,100208.00
2023-02-11T11:54:12.140Z,100207.00
2023-02-11T11:57:10.282Z,100203.00
2023-02-11T11:59:38.278Z,100205.00
2023-02-11T12:03:04.584Z,100196.00
2023-02-11T12:06:52.006Z,100189.00
2023-02-11T12:09:55.957Z,100195.00
2023-02-11T12:13:03.522Z,100178.00
2023-02-11T12:16:10.099Z,100181.00
2023-02-11T12:19:49.348Z,100176.00
2023-02-11T12:23:27.722Z,100178.00
2023-02-11T12:26:26.747Z,100183.00
2023-02-11T12:29:35.263Z,100175.00
2023-02-11T12:32:44.245Z,100168.00
2023-02-11T12:35:59.118Z,100163.00
2023-02-11T12:39:15.421Z,100165.00
2023-02-11T12:43:05.225Z,100167.00
2023-02-11T12:46:04.050Z,100162.00
2023-02-11T12:49:14.590Z,100160.00
2023-02-11T12:52:46.520Z,100158.00
2023-02-11T12:55:37.196Z,100149.00
2023-02-11T12:58:06.419Z,100152.00
2023-02-11T13:01:01.224Z,100151.00
2023-02-11T13:03:42.867Z,100147.00
2023-02-11T13:06:22.506Z,100147.00
2023-02-11T13:08:58.479Z,100112.00
2023-02-11T13:11:43.598Z,100106.00
2023-02-11T13:14:35.315Z,100106.00
2023-02-11T13:17:16.373Z,100109.00
2023-02-11T13:20:01.346Z,100108.00
2023-02-11T13:23:23.869Z,100113.00
2023-02-11T13:26:12.479Z,100125.00
2023-02-11T13:29:05.881Z,100135.00
2023-02-11T13:31:33.293Z,100132.00
2023-02-11T13:34:00.951Z,100133.00
2023-02-11T13:36:32.838Z,100131.00
2023-02-11T13:39:06.508Z,100132.00
2023-02-11T13:41:46.011Z,100117.00
2023-02-11T13:44:13.688Z,100120.00
2023-02-11T13:47:05.333Z,100125.00
2023-02-11T13:49:49.221Z,100122.00
2023-02-11T13:52:36.022Z,100123.00
2023-02-11T13:55:21.512Z,100121.00
2023-02-11T13:58:08.560Z,100126.00
2023-02-11T14:00:35.763Z,100121.00
2023-02-11T14:03:30.649Z,100131.00
2023-02-11T14:06:30.398Z,100135.00
2023-02-11T14:09:09.768Z,100133.00
2023-02-11T14:12:26.164Z,100124.00
2023-02-11T14:15:21.300Z,100129.00
2023-02-11T14:17:48.623Z,100119.00
2023-02-11T14:20:44.044Z,100112.00
2023-02-11T14:23:27.377Z,100119.00
2023-02-11T14:26:21.135Z,100119.00
2023-02-11T14:29:18.059Z,100121.00
2023-02-11T14:32:38.704Z,100113.00
2023-02-11T14:35:28.361Z,100123.00
2023-02-11T14:38:40.608Z,100119.00
2023-02-11T14:41:30.581Z,100121.00
2023-02-11T14:44:13.944Z,100091.00
2023-02-11T14:46:52.453Z,100108.00
2023-02-11T14:49:36.561Z,100095.00
2023-02-11T14:52:30.261Z,100099.00
2023-02-11T14:55:29.143Z,100098.00
2023-02-11T14:58:26.408Z,100089.00
2023-02-11T15:01:06.551Z,100079.00
2023-02-11T15:03:40.245Z,100092.00
2023-02-11T15:06:33.182Z,100091.00
2023-02-11T15:09:31.059Z,100083.00
2023-02-11T15:11:59.122Z,100083.00
2023-02-11T15:14:35.641Z,100089.00
2023-02-11T15:17:08.716Z,100088.00
2023-02-11T15:19:47.330Z,100084.00
2023-02-11T15:22:47.226Z,100088.00
2023-02-11T15:25:19.451Z,100091.00
2023-02-11T15:27:57.069Z,100086.00
2023-02-11T15:30:24.860Z,100097.00
2023-02-11T15:33:00.583Z,100096.00
2023-02-11T15:35:38.577Z,100091.00
2023-02-11T15:38:07.502Z,100086.00
2023-02-11T15:40:37.780Z,100093.00
2023-02-11T15:43:10.567Z,100086.00
2023-02-11T15:46:01.796Z,100102.00
2023-02-11T15:48:53.251Z,100093.00
2023-02-11T15:51:35.927Z,100095.00
2023-02-11T15:54:24.216Z,100097.00
2023-02-11T15:56:58.924Z,100101.00
2023-02-11T15:59:40.645Z,100100.00
2023-02-11T16:02:36.697Z,100103.00
2023-02-11T16:05:09.549Z,100107.00
2023-02-11T16:07:52.347Z,100102.00
2023-02-11T16:10:36.137Z,100107.00
2023-02-11T16:13:06.004Z,100106.00
2023-02-11T16:15:49.656Z,100116.00
2023-02-11T16:18:39.824Z,100115.00
2023-02-11T16:21:17.296Z,100103.00
2023-02-11T16:23:56.463Z,100105.00
2023-02-11T16:26:43.053Z,100110.00
2023-02-11T16:29:31.114Z,100103.00
2023-02-11T16:32:21.534Z,100113.00
2023-02-11T16:34:50.004Z,100119.00
2023-02-11T16:37:17.462Z,100110.00
2023-02-11T16:39:44.888Z,100122.00
2023-02-11T16:42:13.119Z,100116.00
2023-02-11T16:44:40.672Z,100117.00
2023-02-11T16:47:27.063Z,100114.00
2023-02-11T16:49:56.130Z,100106.00
2023-02-11T16:52:24.352Z,100122.00
2023-02-11T16:54:52.225Z,100131.00
2023-02-11T16:57:28.090Z,100127.00
2023-02-11T16:59:59.015Z,100136.00
2023-02-11T17:02:35.980Z,100133.00
2023-02-11T17:05:15.344Z,100141.00
2023-02-11T17:07:42.722Z,100142.00
2023-02-11T17:10:23.636Z,100134.00
2023-02-11T17:12:53.428Z,100147.00
2023-02-11T17:15:20.758Z,100142.00
2023-02-11T17:17:48.209Z,100147.00
2023-02-11T17:20:16.608Z,100143.00
2023-02-11T17:22:43.947Z,100147.00
2023-02-11T17:25:11.457Z,100144.00
2023-02-11T17:27:38.848Z,100159.00
2023-02-11T17:30:07.666Z,100159.00
2023-02-11T17:32:36.084Z,100167.00
2023-02-11T17:35:05.692Z,100165.00
2023-02-11T17:37:33.070Z,100160.00
2023-02-11T17:40:00.424Z,100165.00
2023-02-11T17:42:27.785Z,100165.00
2023-02-11T17:44:55.203Z,100150.00
2023-02-11T17:47:22.537Z,100173.00
2023-02-11T17:49:49.812Z,100170.00
2023-02-11T17:52:18.125Z,100169.00
2023-02-11T17:54:45.942Z,100172.00
2023-02-11T17:57:13.869Z,100173.00
2023-02-11T17:59:41.286Z,100169.00
2023-02-11T18:02:12.842Z,100164.00
2023-02-11T18:04:40.521Z,100181.00
2023-02-11T18:07:07.855Z,100176.00
2023-02-11T18:09:41.568Z,100176.00
2023-02-11T18:12:10.683Z,100180.00
2023-02-11T18:14:41.920Z,100176.00
2023-02-11T18:17:09.576Z,100181.00
2023-02-11T18:19:37.574Z,100179.00
2023-02-11T18:22:04.903Z,100173.00
2023-02-11T18:24:32.489Z,100173.00
2023-02-11T18:26:59.934Z,100175.00
2023-02-11T18:29:27.299Z,100177.00
2023-02-11T18:31:57.161Z,100169.00
2023-02-11T18:34:25.880Z,100165.00
2023-02-11T18:36:53.406Z,100177.00
2023-02-11T18:39:21.214Z,100175.00
2023-02-11T18:41:48.623Z,100181.00
2023-02-11T18:44:22.034Z,100177.00
2023-02-11T18:46:49.428Z,100176.00
2023-02-11T18:49:16.704Z,100181.00
2023-02-11T18:51:44.037Z,100186.00
2023-02-11T18:54:11.808Z,100176.00
2023-02-11T18:56:39.689Z,100150.00
2023-02-11T18:59:07.127Z,100187.00
2023-02-11T19:01:35.457Z,100178.00
2023-02-11T19:04:05.561Z,100187.00
2023-02-11T19:06:37.482Z,100180.00
2023-02-11T19:09:18.657Z,100193.00
2023-02-11T19:11:54.168Z,100194.00
2023-02-11T19:14:31.534Z,100200.00
2023-02-11T19:17:06.941Z,100194.00
2023-02-11T19:19:36.488Z,100184.00
2023-02-11T19:22:10.501Z,100192.00
2023-02-11T19:24:38.811Z,100201.00
2023-02-11T19:27:06.293Z,100207.00
2023-02-11T19:29:35.225Z,100206.00
2023-02-11T19:32:06.149Z,100215.00
2023-02-11T19:34:41.031Z,100214.00
2023-02-11T19:37:12.700Z,100212.00
2023-02-11T19:39:42.829Z,100226.00
2023-02-11T19:42:10.376Z,100222.00
2023-02-11T19:44:38.139Z,100222.00
2023-02-11T19:47:06.889Z,100225.00
2023-02-11T19:49:34.563Z,100236.00
2023-02-11T19:52:01.908Z,100219.00
2023-02-11T19:54:29.404Z,100226.00
2023-02-11T19:56:57.778Z,100229.00
2023-02-11T19:59:25.622Z,100227.00
2023-02-11T20:01:53.876Z,100227.00
2023-02-11T20:04:21.438Z,100229.00
2023-02-11T20:06:49.246Z,100222.00
2023-02-11T20:09:16.724Z,100225.00
2023-02-11T20:11:44.406Z,100222.00
2023-02-11T20:14:15.208Z,100231.00
2023-02-11T20:16:49.304Z,100242.00
2023-02-11T20:19:22.181Z,100250.00
2023-02-11T20:21:55.681Z,100231.00
2023-02-11T20:24:25.342Z,100232.00
2023-02-11T20:26:56.668Z,100238.00
2023-02-11T20:29:25.985Z,100257.00
2023-02-11T20:31:54.508Z,100243.00
2023-02-11T20:34:22.489Z,100242.00
2023-02-11T20:36:52.829Z,100234.00
2023-02-11T20:39:23.797Z,100242.00
2023-02-11T20:41:53.692Z,100244.00
2023-02-11T20:44:22.352Z,100234.00
2023-02-11T20:46:51.385Z,100246.00
2023-02-11T20:49:24.370Z,100243.00
2023-02-11T20:51:53.816Z,100231.00
2023-02-11T20:54:23.453Z,100225.00
2023-02-11T20:56:52.103Z,100221.00
2023-02-11T20:59:21.133Z,100222.00
2023-02-11T21:01:54.058Z,100219.00
2023-02-11T21:04:29.956Z,100211.00
2023-02-11T21:07:01.700Z,100222.00
2023-02-11T21:09:33.439Z,100214.00
2023-02-11T21:12:01.531Z,100214.00
2023-02-11T21:14:30.025Z,100209.00
2023-02-11T21:16:57.888Z,100216.00
2023-02-11T21:19:25.630Z,100208.00
2023-02-11T21:21:55.216Z,100211.00
2023-02-11T21:24:23.717Z,100219.00
2023-02-11T21:26:51.094Z,100213.00
2023-02-11T21:29:18.449Z,100208.00
2023-02-11T21:31:46.214Z,100205.00
2023-02-11T21:34:14.279Z,100216.00
2023-02-11T21:36:41.540Z,100206.00
2023-02-11T21:39:09.067Z,100204.00
2023-02-11T21:41:36.470Z,100206.00
2023-02-11T21:44:03.937Z,100212.00
2023-02-11T21:46:32.334Z,100217.00
2023-02-11T21:49:00.426Z,100230.00
2023-02-11T21:51:28.137Z,100229.00
2023-02-11T21:53:59.772Z,100225.00
2023-02-11T21:56:30.341Z,100220.00
2023-02-11T21:58:59.815Z,100213.00
2023-02-11T22:01:36.849Z,100204.00
2023-02-11T22:04:04.470Z,100207.00
2023-02-11T22:06:34.573Z,100207.00
2023-02-11T22:09:09.812Z,100205.00
2023-02-11T22:11:37.459Z,100212.00
